sensor_id;sensor_type;location;lat;lon;timestamp;P1;durP1;ratioP1;P2;durP2;ratioP2
15633;SDS011;14654;48.898;8.308;2024-01-06T00:00:26;2.77;;;2.10;;
15633;SDS011;14654;48.898;8.308;2024-01-06T00:02:51;2.90;;;2.20;;
15633;SDS011;14654;48.898;8.308;2024-01-06T00:05:17;4.43;;;2.60;;
15633;SDS011;14654;48.898;8.308;2024-01-06T00:07:42;4.50;;;2.53;;
15633;SDS011;14654;48.898;8.308;2024-01-06T00:10:07;4.73;;;2.83;;
15633;SDS011;14654;48.898;8.308;2024-01-06T00:12:33;5.90;;;2.90;;
15633;SDS011;14654;48.898;8.308;2024-01-06T00:14:58;3.93;;;2.83;;
15633;SDS011;14654;48.898;8.308;2024-01-06T00:17:24;3.53;;;2.70;;
15633;SDS011;14654;48.898;8.308;2024-01-06T00:19:49;4.60;;;3.03;;
15633;SDS011;14654;48.898;8.308;2024-01-06T00:22:17;5.17;;;2.73;;
15633;SDS011;14654;48.898;8.308;2024-01-06T00:24:43;3.87;;;3.00;;
15633;SDS011;14654;48.898;8.308;2024-01-06T00:27:09;5.87;;;3.07;;
15633;SDS011;14654;48.898;8.308;2024-01-06T00:29:34;3.13;;;2.20;;
15633;SDS011;14654;48.898;8.308;2024-01-06T00:31:59;4.03;;;2.47;;
15633;SDS011;14654;48.898;8.308;2024-01-06T00:34:25;4.73;;;2.60;;
15633;SDS011;14654;48.898;8.308;2024-01-06T00:36:50;5.00;;;2.53;;
15633;SDS011;14654;48.898;8.308;2024-01-06T00:39:15;3.70;;;2.60;;
15633;SDS011;14654;48.898;8.308;2024-01-06T00:41:40;3.13;;;2.50;;
15633;SDS011;14654;48.898;8.308;2024-01-06T00:44:06;3.93;;;2.20;;
15633;SDS011;14654;48.898;8.308;2024-01-06T00:46:31;2.80;;;2.13;;
15633;SDS011;14654;48.898;8.308;2024-01-06T00:48:56;6.10;;;2.30;;
15633;SDS011;14654;48.898;8.308;2024-01-06T00:51:21;3.63;;;2.30;;
15633;SDS011;14654;48.898;8.308;2024-01-06T00:53:47;2.30;;;1.90;;
15633;SDS011;14654;48.898;8.308;2024-01-06T00:56:12;3.37;;;2.13;;
15633;SDS011;14654;48.898;8.308;2024-01-06T00:58:38;2.33;;;2.10;;
15633;SDS011;14654;48.898;8.308;2024-01-06T01:01:03;4.27;;;2.40;;
15633;SDS011;14654;48.898;8.308;2024-01-06T01:03:28;3.23;;;1.97;;
15633;SDS011;14654;48.898;8.308;2024-01-06T01:05:54;4.00;;;2.03;;
15633;SDS011;14654;48.898;8.308;2024-01-06T01:08:19;2.90;;;1.70;;
15633;SDS011;14654;48.898;8.308;2024-01-06T01:10:44;3.27;;;2.20;;
15633;SDS011;14654;48.898;8.308;2024-01-06T01:13:10;3.53;;;1.90;;
15633;SDS011;14654;48.898;8.308;2024-01-06T01:15:35;1.80;;;1.53;;
15633;SDS011;14654;48.898;8.308;2024-01-06T01:18:01;3.20;;;2.00;;
15633;SDS011;14654;48.898;8.308;2024-01-06T01:20:26;2.60;;;2.10;;
15633;SDS011;14654;48.898;8.308;2024-01-06T01:22:51;2.60;;;1.90;;
15633;SDS011;14654;48.898;8.308;2024-01-06T01:25:17;3.93;;;2.30;;
15633;SDS011;14654;48.898;8.308;2024-01-06T01:27:42;4.67;;;2.47;;
15633;SDS011;14654;48.898;8.308;2024-01-06T01:30:07;3.97;;;2.33;;
15633;SDS011;14654;48.898;8.308;2024-01-06T01:32:33;4.80;;;2.33;;
15633;SDS011;14654;48.898;8.308;2024-01-06T01:34:58;3.60;;;2.33;;
15633;SDS011;14654;48.898;8.308;2024-01-06T01:37:24;3.90;;;2.40;;
15633;SDS011;14654;48.898;8.308;2024-01-06T01:39:49;3.60;;;2.17;;
15633;SDS011;14654;48.898;8.308;2024-01-06T01:42:14;3.47;;;2.10;;
15633;SDS011;14654;48.898;8.308;2024-01-06T01:44:39;2.53;;;1.60;;
15633;SDS011;14654;48.898;8.308;2024-01-06T01:47:05;2.50;;;1.70;;
15633;SDS011;14654;48.898;8.308;2024-01-06T01:49:31;3.40;;;2.43;;
15633;SDS011;14654;48.898;8.308;2024-01-06T01:51:57;4.20;;;2.47;;
15633;SDS011;14654;48.898;8.308;2024-01-06T01:54:23;4.37;;;2.70;;
15633;SDS011;14654;48.898;8.308;2024-01-06T01:56:48;4.17;;;2.33;;
15633;SDS011;14654;48.898;8.308;2024-01-06T01:59:14;3.70;;;2.67;;
15633;SDS011;14654;48.898;8.308;2024-01-06T02:01:43;4.67;;;2.33;;
15633;SDS011;14654;48.898;8.308;2024-01-06T02:04:09;3.27;;;2.30;;
15633;SDS011;14654;48.898;8.308;2024-01-06T02:06:34;3.53;;;2.43;;
15633;SDS011;14654;48.898;8.308;2024-01-06T02:09:00;3.40;;;2.27;;
15633;SDS011;14654;48.898;8.308;2024-01-06T02:11:25;3.37;;;2.53;;
15633;SDS011;14654;48.898;8.308;2024-01-06T02:13:50;5.90;;;2.17;;
15633;SDS011;14654;48.898;8.308;2024-01-06T02:16:16;4.73;;;2.40;;
15633;SDS011;14654;48.898;8.308;2024-01-06T02:18:41;3.80;;;2.13;;
15633;SDS011;14654;48.898;8.308;2024-01-06T02:21:07;5.17;;;2.40;;
15633;SDS011;14654;48.898;8.308;2024-01-06T02:23:34;5.07;;;2.60;;
15633;SDS011;14654;48.898;8.308;2024-01-06T02:26:00;5.13;;;2.77;;
15633;SDS011;14654;48.898;8.308;2024-01-06T02:28:26;5.00;;;2.57;;
15633;SDS011;14654;48.898;8.308;2024-01-06T02:30:51;4.90;;;2.60;;
15633;SDS011;14654;48.898;8.308;2024-01-06T02:33:16;4.10;;;2.77;;
15633;SDS011;14654;48.898;8.308;2024-01-06T02:35:44;3.70;;;2.53;;
15633;SDS011;14654;48.898;8.308;2024-01-06T02:38:10;4.33;;;2.17;;
15633;SDS011;14654;48.898;8.308;2024-01-06T02:40:35;5.40;;;1.87;;
15633;SDS011;14654;48.898;8.308;2024-01-06T02:43:01;6.20;;;2.53;;
15633;SDS011;14654;48.898;8.308;2024-01-06T02:45:26;3.87;;;2.40;;
15633;SDS011;14654;48.898;8.308;2024-01-06T02:47:51;4.27;;;2.23;;
15633;SDS011;14654;48.898;8.308;2024-01-06T02:50:17;5.00;;;1.87;;
15633;SDS011;14654;48.898;8.308;2024-01-06T02:52:43;4.50;;;2.17;;
15633;SDS011;14654;48.898;8.308;2024-01-06T02:55:09;4.37;;;2.80;;
15633;SDS011;14654;48.898;8.308;2024-01-06T02:57:34;5.37;;;2.50;;
15633;SDS011;14654;48.898;8.308;2024-01-06T03:00:00;5.03;;;2.60;;
15633;SDS011;14654;48.898;8.308;2024-01-06T03:02:26;5.83;;;2.67;;
15633;SDS011;14654;48.898;8.308;2024-01-06T03:04:51;3.40;;;2.80;;
15633;SDS011;14654;48.898;8.308;2024-01-06T03:07:17;5.50;;;2.50;;
15633;SDS011;14654;48.898;8.308;2024-01-06T03:09:42;5.70;;;2.50;;
15633;SDS011;14654;48.898;8.308;2024-01-06T03:12:08;4.13;;;2.33;;
15633;SDS011;14654;48.898;8.308;2024-01-06T03:14:37;5.10;;;2.60;;
15633;SDS011;14654;48.898;8.308;2024-01-06T03:17:03;4.93;;;2.70;;
15633;SDS011;14654;48.898;8.308;2024-01-06T03:19:29;5.07;;;2.70;;
15633;SDS011;14654;48.898;8.308;2024-01-06T03:21:55;3.87;;;2.47;;
15633;SDS011;14654;48.898;8.308;2024-01-06T03:24:24;3.30;;;2.40;;
15633;SDS011;14654;48.898;8.308;2024-01-06T03:26:50;4.47;;;2.97;;
15633;SDS011;14654;48.898;8.308;2024-01-06T03:29:16;3.90;;;2.50;;
15633;SDS011;14654;48.898;8.308;2024-01-06T03:31:42;6.87;;;3.10;;
15633;SDS011;14654;48.898;8.308;2024-01-06T03:34:08;4.23;;;2.80;;
15633;SDS011;14654;48.898;8.308;2024-01-06T03:36:33;4.57;;;2.77;;
15633;SDS011;14654;48.898;8.308;2024-01-06T03:38:59;4.03;;;2.73;;
15633;SDS011;14654;48.898;8.308;2024-01-06T03:41:24;4.30;;;2.27;;
15633;SDS011;14654;48.898;8.308;2024-01-06T03:43:49;2.83;;;2.00;;
15633;SDS011;14654;48.898;8.308;2024-01-06T03:46:15;2.87;;;1.67;;
15633;SDS011;14654;48.898;8.308;2024-01-06T03:48:40;4.47;;;2.60;;
15633;SDS011;14654;48.898;8.308;2024-01-06T03:51:06;2.60;;;1.70;;
15633;SDS011;14654;48.898;8.308;2024-01-06T03:53:32;3.23;;;2.03;;
15633;SDS011;14654;48.898;8.308;2024-01-06T03:55:58;3.73;;;1.90;;
15633;SDS011;14654;48.898;8.308;2024-01-06T03:58:23;3.13;;;2.30;;
15633;SDS011;14654;48.898;8.308;2024-01-06T04:00:48;3.13;;;2.03;;
15633;SDS011;14654;48.898;8.308;2024-01-06T04:03:13;4.43;;;2.17;;
15633;SDS011;14654;48.898;8.308;2024-01-06T04:05:39;3.30;;;1.73;;
15633;SDS011;14654;48.898;8.308;2024-01-06T04:08:04;4.80;;;2.27;;
15633;SDS011;14654;48.898;8.308;2024-01-06T04:10:29;4.93;;;2.53;;
15633;SDS011;14654;48.898;8.308;2024-01-06T04:12:55;4.17;;;2.27;;
15633;SDS011;14654;48.898;8.308;2024-01-06T04:15:20;5.73;;;2.43;;
15633;SDS011;14654;48.898;8.308;2024-01-06T04:17:47;5.87;;;2.70;;
15633;SDS011;14654;48.898;8.308;2024-01-06T04:20:13;3.67;;;2.17;;
15633;SDS011;14654;48.898;8.308;2024-01-06T04:22:39;5.07;;;2.47;;
15633;SDS011;14654;48.898;8.308;2024-01-06T04:25:04;5.03;;;2.23;;
15633;SDS011;14654;48.898;8.308;2024-01-06T04:27:29;5.47;;;2.57;;
15633;SDS011;14654;48.898;8.308;2024-01-06T04:29:56;3.13;;;2.00;;
15633;SDS011;14654;48.898;8.308;2024-01-06T04:32:21;3.13;;;1.90;;
15633;SDS011;14654;48.898;8.308;2024-01-06T04:34:46;4.43;;;2.43;;
15633;SDS011;14654;48.898;8.308;2024-01-06T04:37:11;3.83;;;1.93;;
15633;SDS011;14654;48.898;8.308;2024-01-06T04:39:37;3.10;;;1.93;;
15633;SDS011;14654;48.898;8.308;2024-01-06T04:42:03;5.97;;;2.63;;
15633;SDS011;14654;48.898;8.308;2024-01-06T04:44:29;3.17;;;2.07;;
15633;SDS011;14654;48.898;8.308;2024-01-06T04:46:54;2.97;;;2.00;;
15633;SDS011;14654;48.898;8.308;2024-01-06T04:49:19;4.57;;;2.53;;
15633;SDS011;14654;48.898;8.308;2024-01-06T04:51:45;4.77;;;2.70;;
15633;SDS011;14654;48.898;8.308;2024-01-06T04:54:10;2.90;;;2.10;;
15633;SDS011;14654;48.898;8.308;2024-01-06T04:56:35;3.57;;;2.13;;
15633;SDS011;14654;48.898;8.308;2024-01-06T04:59:01;5.17;;;3.00;;
15633;SDS011;14654;48.898;8.308;2024-01-06T05:01:26;5.50;;;2.70;;
15633;SDS011;14654;48.898;8.308;2024-01-06T05:03:51;5.90;;;2.63;;
15633;SDS011;14654;48.898;8.308;2024-01-06T05:06:17;4.57;;;2.03;;
15633;SDS011;14654;48.898;8.308;2024-01-06T05:08:42;6.33;;;2.77;;
15633;SDS011;14654;48.898;8.308;2024-01-06T05:11:09;4.40;;;2.40;;
15633;SDS011;14654;48.898;8.308;2024-01-06T05:13:35;2.70;;;2.23;;
15633;SDS011;14654;48.898;8.308;2024-01-06T05:16:01;3.57;;;2.57;;
15633;SDS011;14654;48.898;8.308;2024-01-06T05:18:26;3.43;;;2.37;;
15633;SDS011;14654;48.898;8.308;2024-01-06T05:20:52;3.80;;;2.23;;
15633;SDS011;14654;48.898;8.308;2024-01-06T05:23:17;4.63;;;2.50;;
15633;SDS011;14654;48.898;8.308;2024-01-06T05:25:42;4.13;;;2.60;;
15633;SDS011;14654;48.898;8.308;2024-01-06T05:28:08;3.73;;;2.47;;
15633;SDS011;14654;48.898;8.308;2024-01-06T05:30:33;4.03;;;2.70;;
15633;SDS011;14654;48.898;8.308;2024-01-06T05:32:58;3.87;;;2.43;;
15633;SDS011;14654;48.898;8.308;2024-01-06T05:35:23;4.17;;;2.60;;
15633;SDS011;14654;48.898;8.308;2024-01-06T05:37:49;4.53;;;2.40;;
15633;SDS011;14654;48.898;8.308;2024-01-06T05:40:14;3.73;;;2.70;;
15633;SDS011;14654;48.898;8.308;2024-01-06T05:42:39;4.70;;;2.70;;
15633;SDS011;14654;48.898;8.308;2024-01-06T05:45:05;7.03;;;3.17;;
15633;SDS011;14654;48.898;8.308;2024-01-06T05:47:31;4.37;;;2.57;;
15633;SDS011;14654;48.898;8.308;2024-01-06T05:49:56;6.07;;;2.80;;
15633;SDS011;14654;48.898;8.308;2024-01-06T05:52:22;4.33;;;2.67;;
15633;SDS011;14654;48.898;8.308;2024-01-06T05:54:48;4.27;;;2.70;;
15633;SDS011;14654;48.898;8.308;2024-01-06T05:57:13;5.17;;;2.70;;
15633;SDS011;14654;48.898;8.308;2024-01-06T05:59:39;5.30;;;2.73;;
15633;SDS011;14654;48.898;8.308;2024-01-06T06:02:05;5.57;;;2.90;;
15633;SDS011;14654;48.898;8.308;2024-01-06T06:04:30;3.33;;;2.23;;
15633;SDS011;14654;48.898;8.308;2024-01-06T06:06:56;4.23;;;2.40;;
15633;SDS011;14654;48.898;8.308;2024-01-06T06:09:21;3.27;;;2.33;;
15633;SDS011;14654;48.898;8.308;2024-01-06T06:11:47;6.00;;;2.27;;
15633;SDS011;14654;48.898;8.308;2024-01-06T06:14:12;5.37;;;2.30;;
15633;SDS011;14654;48.898;8.308;2024-01-06T06:16:37;4.83;;;2.70;;
15633;SDS011;14654;48.898;8.308;2024-01-06T06:19:03;3.90;;;2.60;;
15633;SDS011;14654;48.898;8.308;2024-01-06T06:21:28;4.17;;;2.50;;
15633;SDS011;14654;48.898;8.308;2024-01-06T06:23:56;6.13;;;2.60;;
15633;SDS011;14654;48.898;8.308;2024-01-06T06:26:21;3.93;;;2.60;;
15633;SDS011;14654;48.898;8.308;2024-01-06T06:28:46;3.87;;;2.40;;
15633;SDS011;14654;48.898;8.308;2024-01-06T06:31:12;5.20;;;2.53;;
15633;SDS011;14654;48.898;8.308;2024-01-06T06:33:37;3.47;;;2.27;;
15633;SDS011;14654;48.898;8.308;2024-01-06T06:36:02;3.70;;;2.50;;
15633;SDS011;14654;48.898;8.308;2024-01-06T06:38:28;4.90;;;2.30;;
15633;SDS011;14654;48.898;8.308;2024-01-06T06:40:54;5.00;;;2.63;;
15633;SDS011;14654;48.898;8.308;2024-01-06T06:43:20;3.93;;;2.30;;
15633;SDS011;14654;48.898;8.308;2024-01-06T06:45:45;3.67;;;2.07;;
15633;SDS011;14654;48.898;8.308;2024-01-06T06:48:10;2.93;;;2.50;;
15633;SDS011;14654;48.898;8.308;2024-01-06T06:50:35;4.57;;;2.47;;
15633;SDS011;14654;48.898;8.308;2024-01-06T06:53:01;4.77;;;3.10;;
15633;SDS011;14654;48.898;8.308;2024-01-06T06:55:26;3.77;;;2.90;;
15633;SDS011;14654;48.898;8.308;2024-01-06T06:57:52;4.10;;;2.67;;
15633;SDS011;14654;48.898;8.308;2024-01-06T07:00:18;5.10;;;3.00;;
15633;SDS011;14654;48.898;8.308;2024-01-06T07:02:43;3.33;;;2.77;;
15633;SDS011;14654;48.898;8.308;2024-01-06T07:05:08;5.30;;;2.83;;
15633;SDS011;14654;48.898;8.308;2024-01-06T07:07:34;4.53;;;3.03;;
15633;SDS011;14654;48.898;8.308;2024-01-06T07:10:03;3.67;;;2.77;;
15633;SDS011;14654;48.898;8.308;2024-01-06T07:12:30;3.70;;;3.27;;
15633;SDS011;14654;48.898;8.308;2024-01-06T07:14:55;3.63;;;2.70;;
15633;SDS011;14654;48.898;8.308;2024-01-06T07:17:21;3.33;;;2.93;;
15633;SDS011;14654;48.898;8.308;2024-01-06T07:19:46;3.20;;;2.90;;
15633;SDS011;14654;48.898;8.308;2024-01-06T07:22:11;3.10;;;2.80;;
15633;SDS011;14654;48.898;8.308;2024-01-06T07:24:37;3.23;;;2.93;;
15633;SDS011;14654;48.898;8.308;2024-01-06T07:27:02;5.27;;;3.20;;
15633;SDS011;14654;48.898;8.308;2024-01-06T07:29:28;3.87;;;3.23;;
15633;SDS011;14654;48.898;8.308;2024-01-06T07:31:54;4.10;;;2.90;;
15633;SDS011;14654;48.898;8.308;2024-01-06T07:34:19;5.47;;;2.80;;
15633;SDS011;14654;48.898;8.308;2024-01-06T07:36:44;3.60;;;2.70;;
15633;SDS011;14654;48.898;8.308;2024-01-06T07:39:10;3.23;;;2.50;;
15633;SDS011;14654;48.898;8.308;2024-01-06T07:41:35;3.00;;;2.80;;
15633;SDS011;14654;48.898;8.308;2024-01-06T07:44:00;3.40;;;2.93;;
15633;SDS011;14654;48.898;8.308;2024-01-06T07:46:27;3.77;;;3.13;;
15633;SDS011;14654;48.898;8.308;2024-01-06T07:48:53;4.47;;;3.03;;
15633;SDS011;14654;48.898;8.308;2024-01-06T07:51:19;3.90;;;3.07;;
15633;SDS011;14654;48.898;8.308;2024-01-06T07:53:44;3.77;;;3.37;;
15633;SDS011;14654;48.898;8.308;2024-01-06T07:56:09;4.77;;;3.60;;
15633;SDS011;14654;48.898;8.308;2024-01-06T07:58:35;3.73;;;3.30;;
15633;SDS011;14654;48.898;8.308;2024-01-06T08:01:00;6.10;;;3.97;;
15633;SDS011;14654;48.898;8.308;2024-01-06T08:03:26;4.33;;;3.93;;
15633;SDS011;14654;48.898;8.308;2024-01-06T08:05:52;3.87;;;3.40;;
15633;SDS011;14654;48.898;8.308;2024-01-06T08:08:17;4.47;;;3.87;;
15633;SDS011;14654;48.898;8.308;2024-01-06T08:10:43;3.87;;;3.27;;
15633;SDS011;14654;48.898;8.308;2024-01-06T08:13:09;4.30;;;3.60;;
15633;SDS011;14654;48.898;8.308;2024-01-06T08:15:34;3.03;;;2.70;;
15633;SDS011;14654;48.898;8.308;2024-01-06T08:17:59;3.33;;;2.93;;
15633;SDS011;14654;48.898;8.308;2024-01-06T08:20:25;3.40;;;2.67;;
15633;SDS011;14654;48.898;8.308;2024-01-06T08:22:50;3.00;;;2.70;;
15633;SDS011;14654;48.898;8.308;2024-01-06T08:25:15;3.80;;;2.80;;
15633;SDS011;14654;48.898;8.308;2024-01-06T08:27:42;3.20;;;2.90;;
15633;SDS011;14654;48.898;8.308;2024-01-06T08:30:08;4.03;;;3.27;;
15633;SDS011;14654;48.898;8.308;2024-01-06T08:32:34;3.60;;;3.00;;
15633;SDS011;14654;48.898;8.308;2024-01-06T08:34:59;4.20;;;3.47;;
15633;SDS011;14654;48.898;8.308;2024-01-06T08:37:24;4.00;;;3.60;;
15633;SDS011;14654;48.898;8.308;2024-01-06T08:39:50;3.87;;;3.57;;
15633;SDS011;14654;48.898;8.308;2024-01-06T08:42:15;4.57;;;4.00;;
15633;SDS011;14654;48.898;8.308;2024-01-06T08:44:40;6.53;;;4.73;;
15633;SDS011;14654;48.898;8.308;2024-01-06T08:47:06;4.90;;;4.40;;
15633;SDS011;14654;48.898;8.308;2024-01-06T08:49:31;5.30;;;4.80;;
15633;SDS011;14654;48.898;8.308;2024-01-06T08:51:57;4.30;;;3.90;;
15633;SDS011;14654;48.898;8.308;2024-01-06T08:54:22;4.50;;;4.10;;
15633;SDS011;14654;48.898;8.308;2024-01-06T08:56:48;4.87;;;4.33;;
15633;SDS011;14654;48.898;8.308;2024-01-06T08:59:14;4.50;;;4.13;;
15633;SDS011;14654;48.898;8.308;2024-01-06T09:01:40;5.60;;;5.10;;
15633;SDS011;14654;48.898;8.308;2024-01-06T09:04:05;5.67;;;5.10;;
15633;SDS011;14654;48.898;8.308;2024-01-06T09:06:31;5.70;;;5.20;;
15633;SDS011;14654;48.898;8.308;2024-01-06T09:08:57;5.60;;;5.10;;
15633;SDS011;14654;48.898;8.308;2024-01-06T09:11:22;6.00;;;5.40;;
15633;SDS011;14654;48.898;8.308;2024-01-06T09:13:47;5.07;;;4.57;;
15633;SDS011;14654;48.898;8.308;2024-01-06T09:16:13;4.90;;;4.40;;
15633;SDS011;14654;48.898;8.308;2024-01-06T09:18:39;5.70;;;5.20;;
15633;SDS011;14654;48.898;8.308;2024-01-06T09:21:04;5.53;;;4.80;;
15633;SDS011;14654;48.898;8.308;2024-01-06T09:23:30;6.80;;;5.70;;
15633;SDS011;14654;48.898;8.308;2024-01-06T09:25:56;19.20;;;17.30;;
15633;SDS011;14654;48.898;8.308;2024-01-06T09:28:22;16.37;;;14.77;;
15633;SDS011;14654;48.898;8.308;2024-01-06T09:30:48;11.30;;;10.23;;
15633;SDS011;14654;48.898;8.308;2024-01-06T09:33:13;7.97;;;7.17;;
15633;SDS011;14654;48.898;8.308;2024-01-06T09:35:41;6.40;;;5.67;;
15633;SDS011;14654;48.898;8.308;2024-01-06T09:38:07;7.10;;;5.23;;
15633;SDS011;14654;48.898;8.308;2024-01-06T09:40:32;5.83;;;5.23;;
15633;SDS011;14654;48.898;8.308;2024-01-06T09:42:59;6.07;;;5.57;;
15633;SDS011;14654;48.898;8.308;2024-01-06T09:45:24;5.73;;;5.10;;
15633;SDS011;14654;48.898;8.308;2024-01-06T09:47:50;7.53;;;6.50;;
15633;SDS011;14654;48.898;8.308;2024-01-06T09:50:19;7.83;;;6.43;;
15633;SDS011;14654;48.898;8.308;2024-01-06T09:52:46;7.17;;;6.47;;
15633;SDS011;14654;48.898;8.308;2024-01-06T09:55:23;7.43;;;6.37;;
15633;SDS011;14654;48.898;8.308;2024-01-06T09:57:54;6.87;;;5.97;;
15633;SDS011;14654;48.898;8.308;2024-01-06T10:00:20;6.43;;;5.83;;
15633;SDS011;14654;48.898;8.308;2024-01-06T10:02:49;6.17;;;5.57;;
15633;SDS011;14654;48.898;8.308;2024-01-06T10:05:16;6.83;;;6.00;;
15633;SDS011;14654;48.898;8.308;2024-01-06T10:07:45;6.87;;;6.20;;
15633;SDS011;14654;48.898;8.308;2024-01-06T10:10:11;6.17;;;5.57;;
15633;SDS011;14654;48.898;8.308;2024-01-06T10:12:37;11.43;;;9.90;;
15633;SDS011;14654;48.898;8.308;2024-01-06T10:15:06;13.47;;;12.13;;
15633;SDS011;14654;48.898;8.308;2024-01-06T10:17:36;11.27;;;10.20;;
15633;SDS011;14654;48.898;8.308;2024-01-06T10:20:02;12.10;;;11.00;;
15633;SDS011;14654;48.898;8.308;2024-01-06T10:22:32;8.50;;;7.70;;
15633;SDS011;14654;48.898;8.308;2024-01-06T10:24:57;7.13;;;6.03;;
15633;SDS011;14654;48.898;8.308;2024-01-06T10:27:22;6.53;;;5.93;;
15633;SDS011;14654;48.898;8.308;2024-01-06T10:29:48;7.70;;;5.67;;
15633;SDS011;14654;48.898;8.308;2024-01-06T10:32:13;5.23;;;4.73;;
15633;SDS011;14654;48.898;8.308;2024-01-06T10:34:38;5.37;;;4.80;;
15633;SDS011;14654;48.898;8.308;2024-01-06T10:37:04;6.17;;;4.90;;
15633;SDS011;14654;48.898;8.308;2024-01-06T10:39:30;6.80;;;5.47;;
15633;SDS011;14654;48.898;8.308;2024-01-06T10:41:56;5.47;;;4.97;;
15633;SDS011;14654;48.898;8.308;2024-01-06T10:44:22;5.20;;;4.43;;
15633;SDS011;14654;48.898;8.308;2024-01-06T10:46:49;4.40;;;4.00;;
15633;SDS011;14654;48.898;8.308;2024-01-06T10:49:14;5.20;;;4.70;;
15633;SDS011;14654;48.898;8.308;2024-01-06T10:51:40;7.03;;;5.10;;
15633;SDS011;14654;48.898;8.308;2024-01-06T10:54:06;4.83;;;4.20;;
15633;SDS011;14654;48.898;8.308;2024-01-06T10:56:33;5.07;;;4.57;;
15633;SDS011;14654;48.898;8.308;2024-01-06T10:59:01;5.03;;;4.53;;
15633;SDS011;14654;48.898;8.308;2024-01-06T11:01:28;5.20;;;4.40;;
15633;SDS011;14654;48.898;8.308;2024-01-06T11:03:54;5.27;;;4.77;;
15633;SDS011;14654;48.898;8.308;2024-01-06T11:06:20;5.70;;;5.03;;
15633;SDS011;14654;48.898;8.308;2024-01-06T11:08:48;5.73;;;4.50;;
15633;SDS011;14654;48.898;8.308;2024-01-06T11:11:18;4.40;;;3.97;;
15633;SDS011;14654;48.898;8.308;2024-01-06T11:13:44;4.40;;;4.00;;
15633;SDS011;14654;48.898;8.308;2024-01-06T11:19:00;4.17;;;3.77;;
15633;SDS011;14654;48.898;8.308;2024-01-06T11:21:26;5.27;;;4.50;;
15633;SDS011;14654;48.898;8.308;2024-01-06T11:26:41;5.53;;;4.20;;
15633;SDS011;14654;48.898;8.308;2024-01-06T11:29:07;4.90;;;4.13;;
15633;SDS011;14654;48.898;8.308;2024-01-06T11:31:33;4.57;;;4.00;;
15633;SDS011;14654;48.898;8.308;2024-01-06T11:34:15;4.00;;;3.70;;
15633;SDS011;14654;48.898;8.308;2024-01-06T11:36:44;5.07;;;3.97;;
15633;SDS011;14654;48.898;8.308;2024-01-06T11:42:01;4.20;;;3.53;;
15633;SDS011;14654;48.898;8.308;2024-01-06T11:44:28;4.27;;;3.87;;
15633;SDS011;14654;48.898;8.308;2024-01-06T11:46:56;4.00;;;3.70;;
15633;SDS011;14654;48.898;8.308;2024-01-06T11:49:26;4.80;;;3.67;;
15633;SDS011;14654;48.898;8.308;2024-01-06T11:51:53;5.13;;;4.73;;
15633;SDS011;14654;48.898;8.308;2024-01-06T11:54:18;4.17;;;3.80;;
15633;SDS011;14654;48.898;8.308;2024-01-06T11:56:46;5.70;;;4.10;;
15633;SDS011;14654;48.898;8.308;2024-01-06T11:59:11;3.80;;;3.50;;
15633;SDS011;14654;48.898;8.308;2024-01-06T12:01:37;4.70;;;4.00;;
15633;SDS011;14654;48.898;8.308;2024-01-06T12:04:04;4.30;;;3.90;;
15633;SDS011;14654;48.898;8.308;2024-01-06T12:06:30;4.73;;;4.30;;
15633;SDS011;14654;48.898;8.308;2024-01-06T12:09:05;4.80;;;4.40;;
15633;SDS011;14654;48.898;8.308;2024-01-06T12:11:31;5.50;;;4.93;;
15633;SDS011;14654;48.898;8.308;2024-01-06T12:13:56;5.83;;;4.40;;
15633;SDS011;14654;48.898;8.308;2024-01-06T12:16:22;4.40;;;4.00;;
15633;SDS011;14654;48.898;8.308;2024-01-06T12:18:52;4.60;;;4.20;;
15633;SDS011;14654;48.898;8.308;2024-01-06T12:21:20;5.87;;;5.30;;
15633;SDS011;14654;48.898;8.308;2024-01-06T12:23:46;4.90;;;4.43;;
15633;SDS011;14654;48.898;8.308;2024-01-06T12:26:11;7.17;;;5.23;;
15633;SDS011;14654;48.898;8.308;2024-01-06T12:28:37;5.33;;;4.87;;
15633;SDS011;14654;48.898;8.308;2024-01-06T12:31:04;5.33;;;4.87;;
15633;SDS011;14654;48.898;8.308;2024-01-06T12:33:30;5.43;;;4.93;;
15633;SDS011;14654;48.898;8.308;2024-01-06T12:35:56;6.33;;;5.83;;
15633;SDS011;14654;48.898;8.308;2024-01-06T12:38:22;6.20;;;5.60;;
15633;SDS011;14654;48.898;8.308;2024-01-06T12:40:47;6.33;;;5.73;;
15633;SDS011;14654;48.898;8.308;2024-01-06T12:43:12;6.60;;;6.00;;
15633;SDS011;14654;48.898;8.308;2024-01-06T12:45:38;7.30;;;6.60;;
15633;SDS011;14654;48.898;8.308;2024-01-06T12:48:03;9.03;;;7.43;;
15633;SDS011;14654;48.898;8.308;2024-01-06T12:50:28;6.90;;;6.30;;
15633;SDS011;14654;48.898;8.308;2024-01-06T12:52:54;7.43;;;6.43;;
15633;SDS011;14654;48.898;8.308;2024-01-06T12:55:19;8.57;;;6.50;;
15633;SDS011;14654;48.898;8.308;2024-01-06T12:57:44;7.33;;;6.70;;
15633;SDS011;14654;48.898;8.308;2024-01-06T13:00:10;7.40;;;6.30;;
15633;SDS011;14654;48.898;8.308;2024-01-06T13:02:37;7.40;;;6.70;;
15633;SDS011;14654;48.898;8.308;2024-01-06T13:05:03;7.83;;;7.03;;
15633;SDS011;14654;48.898;8.308;2024-01-06T13:07:29;7.80;;;7.10;;
15633;SDS011;14654;48.898;8.308;2024-01-06T13:09:54;7.37;;;6.40;;
15633;SDS011;14654;48.898;8.308;2024-01-06T13:12:20;9.27;;;6.47;;
15633;SDS011;14654;48.898;8.308;2024-01-06T13:14:45;8.17;;;6.27;;
15633;SDS011;14654;48.898;8.308;2024-01-06T13:17:14;7.00;;;6.40;;
15633;SDS011;14654;48.898;8.308;2024-01-06T13:19:39;7.67;;;6.80;;
15633;SDS011;14654;48.898;8.308;2024-01-06T13:22:05;10.00;;;7.97;;
15633;SDS011;14654;48.898;8.308;2024-01-06T13:24:30;7.40;;;6.33;;
15633;SDS011;14654;48.898;8.308;2024-01-06T13:26:55;7.83;;;7.13;;
15633;SDS011;14654;48.898;8.308;2024-01-06T13:29:21;8.37;;;7.10;;
15633;SDS011;14654;48.898;8.308;2024-01-06T13:31:46;8.40;;;7.60;;
15633;SDS011;14654;48.898;8.308;2024-01-06T13:34:11;7.60;;;6.90;;
15633;SDS011;14654;48.898;8.308;2024-01-06T13:36:37;6.60;;;6.00;;
15633;SDS011;14654;48.898;8.308;2024-01-06T13:39:02;7.83;;;6.83;;
15633;SDS011;14654;48.898;8.308;2024-01-06T13:41:29;6.73;;;6.13;;
15633;SDS011;14654;48.898;8.308;2024-01-06T13:43:54;7.40;;;6.70;;
15633;SDS011;14654;48.898;8.308;2024-01-06T13:46:20;7.30;;;6.60;;
15633;SDS011;14654;48.898;8.308;2024-01-06T13:48:45;6.83;;;6.23;;
15633;SDS011;14654;48.898;8.308;2024-01-06T13:51:10;7.33;;;6.50;;
15633;SDS011;14654;48.898;8.308;2024-01-06T13:53:36;9.47;;;6.87;;
15633;SDS011;14654;48.898;8.308;2024-01-06T13:56:01;7.63;;;6.93;;
15633;SDS011;14654;48.898;8.308;2024-01-06T13:58:27;7.90;;;7.20;;
15633;SDS011;14654;48.898;8.308;2024-01-06T14:00:53;7.03;;;6.50;;
15633;SDS011;14654;48.898;8.308;2024-01-06T14:03:18;7.77;;;6.97;;
15633;SDS011;14654;48.898;8.308;2024-01-06T14:05:44;8.20;;;7.40;;
15633;SDS011;14654;48.898;8.308;2024-01-06T14:08:09;6.83;;;6.23;;
15633;SDS011;14654;48.898;8.308;2024-01-06T14:10:34;7.60;;;6.90;;
15633;SDS011;14654;48.898;8.308;2024-01-06T14:13:00;8.20;;;7.40;;
15633;SDS011;14654;48.898;8.308;2024-01-06T14:15:25;8.10;;;7.30;;
15633;SDS011;14654;48.898;8.308;2024-01-06T14:17:51;7.50;;;6.90;;
15633;SDS011;14654;48.898;8.308;2024-01-06T14:20:17;8.27;;;7.47;;
15633;SDS011;14654;48.898;8.308;2024-01-06T14:22:44;8.43;;;7.63;;
15633;SDS011;14654;48.898;8.308;2024-01-06T14:25:10;7.93;;;7.23;;
15633;SDS011;14654;48.898;8.308;2024-01-06T14:27:35;7.90;;;7.10;;
15633;SDS011;14654;48.898;8.308;2024-01-06T14:30:01;7.50;;;6.80;;
15633;SDS011;14654;48.898;8.308;2024-01-06T14:32:26;7.77;;;7.00;;
15633;SDS011;14654;48.898;8.308;2024-01-06T14:34:52;7.53;;;6.90;;
15633;SDS011;14654;48.898;8.308;2024-01-06T14:37:17;7.10;;;6.40;;
15633;SDS011;14654;48.898;8.308;2024-01-06T14:39:42;6.93;;;6.30;;
15633;SDS011;14654;48.898;8.308;2024-01-06T14:42:08;8.70;;;7.83;;
15633;SDS011;14654;48.898;8.308;2024-01-06T14:44:34;8.03;;;7.33;;
15633;SDS011;14654;48.898;8.308;2024-01-06T14:46:59;7.97;;;7.27;;